Skip Navigation LinksHome page > Weather > Current weather Skip Navigation Links

Current Weather

Chicago O'Hare Intl, Chicago

For information only: do not use for flight planning or navigation.
Latest weather
Observation time Monday, May 2, 2016 1:51 PM CDT
Local time Monday, May 2, 2016 2:21 PM CDT
Flight conditions Visual Meteorological Conditions
Winds
Wind direction North-Northeast (30°)
Wind speed 17 mph
Wind gusting to 24 mph
Visibility 10 mi.
Sky condition
Ceiling 20,000 ft. broken clouds
Cloud layer few clouds 3,000 ft.
Cloud layer few clouds 7,000 ft.
Cloud layer broken clouds 20,000 ft.
Temperature 57°F
Dewpoint 36°F
Altimeter 30.05 in.Hg
Derived measurements
Relative humidity 45%
Density altitude 499 ft.
Sea-level pressure 30.05 in.Hg
Remarks
Automated weather observing station with precipitation discriminator.
METAR KORD 021851Z 03015G21KT 10SM FEW030 FEW070 BKN200 14/02 A3005 RMK AO2 SLP177 T01390022

Settings

Location code

InnerDrive.Weather 4.0.5722.1 Release CLR 4.0.30319.34209
Copyright ©2015 Inner Drive Technology. All rights reserved. Portions Copyright ©1986-2015 David Braverman.

Find weather

Site navigation


Skip Navigation Links

Place info

Page info

PayPal - The safer, easier way to pay online!

Return home.

Copyright ©2016 Inner Drive Technology. Purveyors of fine, hand-crafted computer software. Page printed 2016-05-02T19:21:41 UTC.